sensor_id;sensor_type;location;lat;lon;timestamp;pressure;altitude;pressure_sealevel;temperature;humidity
78841;BME280;68379;47.190;27.558;2023-04-25T00:02:15;99049.73;;;9.42;69.56
78841;BME280;68379;47.190;27.558;2023-04-25T00:04:46;99053.41;;;9.28;69.70
78841;BME280;68379;47.190;27.558;2023-04-25T00:07:19;99050.81;;;9.16;69.79
78841;BME280;68379;47.190;27.558;2023-04-25T00:09:51;99051.58;;;9.07;70.43
78841;BME280;68379;47.190;27.558;2023-04-25T00:12:23;99052.70;;;8.98;70.43
78841;BME280;68379;47.190;27.558;2023-04-25T00:14:54;99048.73;;;8.88;71.06
78841;BME280;68379;47.190;27.558;2023-04-25T00:17:28;99050.33;;;8.80;71.86
78841;BME280;68379;47.190;27.558;2023-04-25T00:20:00;99050.95;;;8.74;72.30
78841;BME280;68379;47.190;27.558;2023-04-25T00:22:35;99048.67;;;8.66;73.44
78841;BME280;68379;47.190;27.558;2023-04-25T00:25:09;99044.92;;;8.59;74.09
78841;BME280;68379;47.190;27.558;2023-04-25T00:27:40;99040.15;;;8.51;74.07
78841;BME280;68379;47.190;27.558;2023-04-25T00:30:14;99035.46;;;8.46;74.99
78841;BME280;68379;47.190;27.558;2023-04-25T00:32:44;99032.58;;;8.44;75.14
78841;BME280;68379;47.190;27.558;2023-04-25T00:35:16;99034.44;;;8.41;75.18
78841;BME280;68379;47.190;27.558;2023-04-25T00:37:49;99032.42;;;8.38;75.20
78841;BME280;68379;47.190;27.558;2023-04-25T00:40:23;99033.09;;;8.35;75.71
78841;BME280;68379;47.190;27.558;2023-04-25T00:42:56;99027.42;;;8.32;75.46
78841;BME280;68379;47.190;27.558;2023-04-25T00:45:29;99027.01;;;8.29;75.31
78841;BME280;68379;47.190;27.558;2023-04-25T00:48:01;99026.95;;;8.26;75.35
78841;BME280;68379;47.190;27.558;2023-04-25T00:50:35;99026.34;;;8.25;74.65
78841;BME280;68379;47.190;27.558;2023-04-25T00:53:08;99025.79;;;8.20;74.87
78841;BME280;68379;47.190;27.558;2023-04-25T00:55:39;99017.06;;;8.19;74.74
78841;BME280;68379;47.190;27.558;2023-04-25T00:58:11;99014.70;;;8.20;74.64
78841;BME280;68379;47.190;27.558;2023-04-25T01:00:43;99019.23;;;8.21;74.48
78841;BME280;68379;47.190;27.558;2023-04-25T01:03:15;99010.93;;;8.22;74.09
78841;BME280;68379;47.190;27.558;2023-04-25T01:05:49;99009.05;;;8.21;73.84
78841;BME280;68379;47.190;27.558;2023-04-25T01:08:25;99008.20;;;8.20;73.99
78841;BME280;68379;47.190;27.558;2023-04-25T01:10:56;99004.70;;;8.20;74.15
78841;BME280;68379;47.190;27.558;2023-04-25T01:13:29;99002.23;;;8.20;74.07
78841;BME280;68379;47.190;27.558;2023-04-25T01:16:02;99000.83;;;8.20;73.77
78841;BME280;68379;47.190;27.558;2023-04-25T01:18:34;99004.07;;;8.18;74.18
78841;BME280;68379;47.190;27.558;2023-04-25T01:21:10;99006.06;;;8.17;73.96
78841;BME280;68379;47.190;27.558;2023-04-25T01:23:43;99003.43;;;8.16;74.98
78841;BME280;68379;47.190;27.558;2023-04-25T01:26:16;99002.52;;;8.17;74.36
78841;BME280;68379;47.190;27.558;2023-04-25T01:28:48;98999.74;;;8.16;75.38
78841;BME280;68379;47.190;27.558;2023-04-25T01:31:20;98994.56;;;8.14;74.57
78841;BME280;68379;47.190;27.558;2023-04-25T01:33:53;98997.83;;;8.12;74.83
78841;BME280;68379;47.190;27.558;2023-04-25T01:36:25;98993.02;;;8.09;75.37
78841;BME280;68379;47.190;27.558;2023-04-25T01:38:57;98989.80;;;8.06;75.56
78841;BME280;68379;47.190;27.558;2023-04-25T01:41:29;98987.23;;;8.04;75.06
78841;BME280;68379;47.190;27.558;2023-04-25T01:44:01;98989.03;;;8.04;75.80
78841;BME280;68379;47.190;27.558;2023-04-25T01:46:34;98990.21;;;8.05;75.48
78841;BME280;68379;47.190;27.558;2023-04-25T01:49:06;98988.05;;;8.06;74.84
78841;BME280;68379;47.190;27.558;2023-04-25T01:51:38;98985.98;;;8.05;75.11
78841;BME280;68379;47.190;27.558;2023-04-25T01:54:09;98982.36;;;8.04;74.84
78841;BME280;68379;47.190;27.558;2023-04-25T01:56:41;98977.59;;;8.04;75.32
78841;BME280;68379;47.190;27.558;2023-04-25T01:59:13;98971.48;;;8.07;75.31
78841;BME280;68379;47.190;27.558;2023-04-25T02:01:45;98963.36;;;8.08;75.56
78841;BME280;68379;47.190;27.558;2023-04-25T02:04:16;98960.70;;;8.08;74.80
78841;BME280;68379;47.190;27.558;2023-04-25T02:06:48;98959.10;;;8.08;74.92
78841;BME280;68379;47.190;27.558;2023-04-25T02:09:20;98955.33;;;8.10;74.77
78841;BME280;68379;47.190;27.558;2023-04-25T02:11:52;98954.49;;;8.13;74.57
78841;BME280;68379;47.190;27.558;2023-04-25T02:14:24;98947.19;;;8.15;74.45
78841;BME280;68379;47.190;27.558;2023-04-25T02:16:55;98940.75;;;8.17;74.72
78841;BME280;68379;47.190;27.558;2023-04-25T02:19:27;98935.14;;;8.17;74.64
78841;BME280;68379;47.190;27.558;2023-04-25T02:21:59;98940.96;;;8.17;74.56
78841;BME280;68379;47.190;27.558;2023-04-25T02:24:31;98945.07;;;8.15;74.93
78841;BME280;68379;47.190;27.558;2023-04-25T02:27:04;98948.38;;;8.12;75.25
78841;BME280;68379;47.190;27.558;2023-04-25T02:29:36;98948.89;;;8.08;75.43
78841;BME280;68379;47.190;27.558;2023-04-25T02:32:07;98950.41;;;8.06;75.34
78841;BME280;68379;47.190;27.558;2023-04-25T02:34:39;98950.98;;;8.05;75.04
78841;BME280;68379;47.190;27.558;2023-04-25T02:37:11;98954.52;;;8.05;75.09
78841;BME280;68379;47.190;27.558;2023-04-25T02:39:43;98954.61;;;8.06;75.20
78841;BME280;68379;47.190;27.558;2023-04-25T02:42:14;98952.97;;;8.08;74.95
78841;BME280;68379;47.190;27.558;2023-04-25T02:44:46;98953.81;;;8.09;75.22
78841;BME280;68379;47.190;27.558;2023-04-25T02:47:18;98952.25;;;8.08;75.00
78841;BME280;68379;47.190;27.558;2023-04-25T02:49:50;98952.14;;;8.06;75.29
78841;BME280;68379;47.190;27.558;2023-04-25T02:52:22;98948.20;;;8.04;75.63
78841;BME280;68379;47.190;27.558;2023-04-25T02:54:53;98946.31;;;8.03;75.29
78841;BME280;68379;47.190;27.558;2023-04-25T02:57:25;98948.65;;;8.06;74.98
78841;BME280;68379;47.190;27.558;2023-04-25T02:59:56;98944.88;;;8.07;74.90
78841;BME280;68379;47.190;27.558;2023-04-25T03:02:28;98950.58;;;8.10;74.81
78841;BME280;68379;47.190;27.558;2023-04-25T03:05:03;98947.48;;;8.12;74.54
78841;BME280;68379;47.190;27.558;2023-04-25T03:07:35;98946.41;;;8.13;74.65
78841;BME280;68379;47.190;27.558;2023-04-25T03:10:10;98945.93;;;8.15;74.09
78841;BME280;68379;47.190;27.558;2023-04-25T03:12:41;98941.93;;;8.18;74.05
78841;BME280;68379;47.190;27.558;2023-04-25T03:15:13;98943.27;;;8.24;73.69
78841;BME280;68379;47.190;27.558;2023-04-25T03:17:46;98941.66;;;8.29;73.03
78841;BME280;68379;47.190;27.558;2023-04-25T03:20:18;98942.02;;;8.33;72.89
78841;BME280;68379;47.190;27.558;2023-04-25T03:22:50;98950.09;;;8.37;72.48
78841;BME280;68379;47.190;27.558;2023-04-25T03:25:22;98954.63;;;8.46;71.72
78841;BME280;68379;47.190;27.558;2023-04-25T03:27:54;98946.55;;;8.54;71.45
78841;BME280;68379;47.190;27.558;2023-04-25T03:30:26;98952.58;;;8.61;71.00
78841;BME280;68379;47.190;27.558;2023-04-25T03:32:57;98953.30;;;8.68;69.98
78841;BME280;68379;47.190;27.558;2023-04-25T03:35:29;98954.19;;;8.75;69.76
78841;BME280;68379;47.190;27.558;2023-04-25T03:38:01;98954.77;;;8.82;69.21
78841;BME280;68379;47.190;27.558;2023-04-25T03:40:33;98954.55;;;8.87;69.21
78841;BME280;68379;47.190;27.558;2023-04-25T03:43:05;98950.80;;;8.92;69.39
78841;BME280;68379;47.190;27.558;2023-04-25T03:45:37;98950.23;;;8.93;69.48
78841;BME280;68379;47.190;27.558;2023-04-25T03:48:09;98954.29;;;8.93;69.44
78841;BME280;68379;47.190;27.558;2023-04-25T03:50:48;98952.23;;;8.91;69.17
78841;BME280;68379;47.190;27.558;2023-04-25T03:53:37;98956.57;;;8.93;69.15
78841;BME280;68379;47.190;27.558;2023-04-25T03:56:09;98957.42;;;8.97;69.28
78841;BME280;68379;47.190;27.558;2023-04-25T03:58:41;98958.83;;;9.01;69.28
78841;BME280;68379;47.190;27.558;2023-04-25T04:01:13;98959.48;;;9.06;69.14
78841;BME280;68379;47.190;27.558;2023-04-25T04:03:45;98958.44;;;9.09;69.11
78841;BME280;68379;47.190;27.558;2023-04-25T04:06:17;98961.19;;;9.14;69.05
78841;BME280;68379;47.190;27.558;2023-04-25T04:08:51;98959.88;;;9.20;69.01
78841;BME280;68379;47.190;27.558;2023-04-25T04:11:22;98964.63;;;9.27;68.50
78841;BME280;68379;47.190;27.558;2023-04-25T04:13:54;98962.20;;;9.34;68.17
78841;BME280;68379;47.190;27.558;2023-04-25T04:16:26;98957.72;;;9.42;68.26
78841;BME280;68379;47.190;27.558;2023-04-25T04:18:58;98956.22;;;9.52;67.89
78841;BME280;68379;47.190;27.558;2023-04-25T04:21:30;98956.67;;;9.60;66.63
78841;BME280;68379;47.190;27.558;2023-04-25T04:24:01;98961.14;;;9.69;67.06
78841;BME280;68379;47.190;27.558;2023-04-25T04:26:33;98960.06;;;9.80;66.91
78841;BME280;68379;47.190;27.558;2023-04-25T04:29:05;98958.19;;;9.90;66.76
78841;BME280;68379;47.190;27.558;2023-04-25T04:31:37;98958.73;;;10.00;66.33
78841;BME280;68379;47.190;27.558;2023-04-25T04:34:09;98960.27;;;10.11;65.98
78841;BME280;68379;47.190;27.558;2023-04-25T04:36:40;98958.48;;;10.25;65.75
78841;BME280;68379;47.190;27.558;2023-04-25T04:39:12;98952.91;;;10.41;64.83
78841;BME280;68379;47.190;27.558;2023-04-25T04:41:43;98956.10;;;10.58;64.67
78841;BME280;68379;47.190;27.558;2023-04-25T04:44:16;98961.27;;;10.70;64.07
78841;BME280;68379;47.190;27.558;2023-04-25T04:46:47;98955.58;;;10.84;63.22
78841;BME280;68379;47.190;27.558;2023-04-25T04:49:22;98959.27;;;10.93;62.40
78841;BME280;68379;47.190;27.558;2023-04-25T04:51:54;98951.98;;;11.01;62.46
78841;BME280;68379;47.190;27.558;2023-04-25T04:54:25;98953.88;;;11.18;62.58
78841;BME280;68379;47.190;27.558;2023-04-25T04:56:57;98954.05;;;11.33;61.80
78841;BME280;68379;47.190;27.558;2023-04-25T04:59:29;98949.66;;;11.42;61.38
78841;BME280;68379;47.190;27.558;2023-04-25T05:02:01;98950.33;;;11.46;61.05
78841;BME280;68379;47.190;27.558;2023-04-25T05:04:32;98946.55;;;11.44;60.82
78841;BME280;68379;47.190;27.558;2023-04-25T05:07:14;98947.92;;;11.42;61.28
78841;BME280;68379;47.190;27.558;2023-04-25T05:09:46;98942.73;;;11.49;61.55
78841;BME280;68379;47.190;27.558;2023-04-25T05:12:17;98945.09;;;11.54;60.90
78841;BME280;68379;47.190;27.558;2023-04-25T05:14:49;98942.83;;;11.60;61.31
78841;BME280;68379;47.190;27.558;2023-04-25T05:17:21;98938.99;;;11.62;61.15
78841;BME280;68379;47.190;27.558;2023-04-25T05:19:53;98941.10;;;11.65;61.54
78841;BME280;68379;47.190;27.558;2023-04-25T05:22:25;98939.96;;;11.72;61.56
78841;BME280;68379;47.190;27.558;2023-04-25T05:24:57;98942.05;;;11.79;60.90
78841;BME280;68379;47.190;27.558;2023-04-25T05:27:29;98941.34;;;11.79;60.88
78841;BME280;68379;47.190;27.558;2023-04-25T05:30:01;98938.89;;;11.82;61.02
78841;BME280;68379;47.190;27.558;2023-04-25T05:32:33;98938.35;;;11.85;60.85
78841;BME280;68379;47.190;27.558;2023-04-25T05:35:05;98938.19;;;11.88;60.75
78841;BME280;68379;47.190;27.558;2023-04-25T05:37:38;98934.16;;;11.93;61.08
78841;BME280;68379;47.190;27.558;2023-04-25T05:40:11;98930.98;;;11.99;60.86
78841;BME280;68379;47.190;27.558;2023-04-25T05:42:43;98928.05;;;12.01;60.69
78841;BME280;68379;47.190;27.558;2023-04-25T05:45:15;98921.05;;;12.11;60.90
78841;BME280;68379;47.190;27.558;2023-04-25T05:47:47;98920.55;;;12.14;60.39
78841;BME280;68379;47.190;27.558;2023-04-25T05:50:19;98920.63;;;12.12;60.52
78841;BME280;68379;47.190;27.558;2023-04-25T05:52:51;98918.02;;;12.17;60.60
78841;BME280;68379;47.190;27.558;2023-04-25T05:55:23;98914.11;;;12.26;60.59
78841;BME280;68379;47.190;27.558;2023-04-25T05:57:55;98914.34;;;12.37;60.50
78841;BME280;68379;47.190;27.558;2023-04-25T06:00:28;98913.04;;;12.52;60.67
78841;BME280;68379;47.190;27.558;2023-04-25T06:03:01;98906.59;;;12.70;60.22
78841;BME280;68379;47.190;27.558;2023-04-25T06:05:33;98906.77;;;12.85;59.71
78841;BME280;68379;47.190;27.558;2023-04-25T06:08:04;98906.27;;;12.89;59.48
78841;BME280;68379;47.190;27.558;2023-04-25T06:10:37;98909.73;;;12.96;59.76
78841;BME280;68379;47.190;27.558;2023-04-25T06:13:08;98911.61;;;13.03;59.43
78841;BME280;68379;47.190;27.558;2023-04-25T06:15:40;98909.99;;;13.09;59.51
78841;BME280;68379;47.190;27.558;2023-04-25T06:18:12;98906.94;;;13.15;59.42
78841;BME280;68379;47.190;27.558;2023-04-25T06:20:43;98902.06;;;13.21;59.38
78841;BME280;68379;47.190;27.558;2023-04-25T06:23:15;98899.98;;;13.27;59.30
78841;BME280;68379;47.190;27.558;2023-04-25T06:25:47;98903.76;;;13.35;59.26
78841;BME280;68379;47.190;27.558;2023-04-25T06:28:19;98900.81;;;13.44;59.14
78841;BME280;68379;47.190;27.558;2023-04-25T06:30:52;98901.94;;;13.46;58.99
78841;BME280;68379;47.190;27.558;2023-04-25T06:33:24;98901.46;;;13.39;59.20
78841;BME280;68379;47.190;27.558;2023-04-25T06:35:57;98901.40;;;13.38;59.41
78841;BME280;68379;47.190;27.558;2023-04-25T06:38:29;98897.98;;;13.36;59.43
78841;BME280;68379;47.190;27.558;2023-04-25T06:41:01;98900.62;;;13.39;59.73
78841;BME280;68379;47.190;27.558;2023-04-25T06:43:33;98900.06;;;13.39;59.60
78841;BME280;68379;47.190;27.558;2023-04-25T06:46:05;98895.57;;;13.43;59.72
78841;BME280;68379;47.190;27.558;2023-04-25T06:48:37;98899.92;;;13.49;59.72
78841;BME280;68379;47.190;27.558;2023-04-25T06:51:09;98900.29;;;13.54;59.57
78841;BME280;68379;47.190;27.558;2023-04-25T06:53:41;98902.09;;;13.59;59.37
78841;BME280;68379;47.190;27.558;2023-04-25T06:56:13;98905.70;;;13.64;59.19
78841;BME280;68379;47.190;27.558;2023-04-25T06:58:46;98906.73;;;13.70;59.32
78841;BME280;68379;47.190;27.558;2023-04-25T07:01:18;98914.05;;;13.85;59.04
78841;BME280;68379;47.190;27.558;2023-04-25T07:03:50;98907.98;;;13.96;58.74
78841;BME280;68379;47.190;27.558;2023-04-25T07:06:22;98905.36;;;14.06;58.74
78841;BME280;68379;47.190;27.558;2023-04-25T07:08:56;98909.70;;;14.15;58.15
78841;BME280;68379;47.190;27.558;2023-04-25T07:11:28;98907.17;;;14.08;58.12
78841;BME280;68379;47.190;27.558;2023-04-25T07:14:00;98905.68;;;14.11;58.49
78841;BME280;68379;47.190;27.558;2023-04-25T07:16:32;98910.70;;;14.26;58.28
78841;BME280;68379;47.190;27.558;2023-04-25T07:19:03;98909.02;;;14.33;57.85
78841;BME280;68379;47.190;27.558;2023-04-25T07:21:35;98912.45;;;14.47;58.07
78841;BME280;68379;47.190;27.558;2023-04-25T07:24:08;98913.91;;;14.62;57.28
78841;BME280;68379;47.190;27.558;2023-04-25T07:26:40;98901.75;;;14.70;56.95
78841;BME280;68379;47.190;27.558;2023-04-25T07:29:12;98901.19;;;14.76;57.00
78841;BME280;68379;47.190;27.558;2023-04-25T07:31:44;98898.44;;;14.82;56.37
78841;BME280;68379;47.190;27.558;2023-04-25T07:34:16;98900.30;;;14.86;56.64
78841;BME280;68379;47.190;27.558;2023-04-25T07:36:48;98903.28;;;15.01;56.33
78841;BME280;68379;47.190;27.558;2023-04-25T07:39:20;98905.25;;;15.08;55.91
78841;BME280;68379;47.190;27.558;2023-04-25T07:41:53;98900.96;;;15.23;55.81
78841;BME280;68379;47.190;27.558;2023-04-25T07:44:26;98904.81;;;15.41;55.11
78841;BME280;68379;47.190;27.558;2023-04-25T07:46:58;98904.77;;;15.56;55.02
78841;BME280;68379;47.190;27.558;2023-04-25T07:49:29;98903.02;;;15.75;54.35
78841;BME280;68379;47.190;27.558;2023-04-25T07:52:01;98900.44;;;15.88;54.33
78841;BME280;68379;47.190;27.558;2023-04-25T07:54:34;98906.40;;;15.91;54.17
78841;BME280;68379;47.190;27.558;2023-04-25T07:57:06;98902.96;;;16.01;54.03
78841;BME280;68379;47.190;27.558;2023-04-25T07:59:38;98899.68;;;16.02;53.91
78841;BME280;68379;47.190;27.558;2023-04-25T08:02:11;98901.99;;;16.07;53.74
78841;BME280;68379;47.190;27.558;2023-04-25T08:04:43;98908.61;;;16.07;53.71
78841;BME280;68379;47.190;27.558;2023-04-25T08:07:15;98904.09;;;16.19;53.85
78841;BME280;68379;47.190;27.558;2023-04-25T08:09:49;98904.23;;;16.31;53.37
78841;BME280;68379;47.190;27.558;2023-04-25T08:12:21;98902.70;;;16.21;53.37
78841;BME280;68379;47.190;27.558;2023-04-25T08:14:53;98902.71;;;16.13;53.40
78841;BME280;68379;47.190;27.558;2023-04-25T08:17:25;98903.58;;;16.14;53.67
78841;BME280;68379;47.190;27.558;2023-04-25T08:19:57;98901.48;;;16.11;53.76
78841;BME280;68379;47.190;27.558;2023-04-25T08:22:30;98910.06;;;16.06;53.73
78841;BME280;68379;47.190;27.558;2023-04-25T08:25:02;98908.00;;;16.01;53.96
78841;BME280;68379;47.190;27.558;2023-04-25T08:27:35;98909.14;;;15.93;54.12
78841;BME280;68379;47.190;27.558;2023-04-25T08:30:08;98911.58;;;15.93;54.44
78841;BME280;68379;47.190;27.558;2023-04-25T08:32:40;98911.42;;;16.00;54.36
78841;BME280;68379;47.190;27.558;2023-04-25T08:35:12;98916.25;;;16.11;54.31
78841;BME280;68379;47.190;27.558;2023-04-25T08:37:44;98912.46;;;16.24;54.24
78841;BME280;68379;47.190;27.558;2023-04-25T08:40:17;98915.72;;;16.19;53.94
78841;BME280;68379;47.190;27.558;2023-04-25T08:42:58;98919.23;;;16.00;54.29
78841;BME280;68379;47.190;27.558;2023-04-25T08:45:33;98913.66;;;15.92;54.58
78841;BME280;68379;47.190;27.558;2023-04-25T08:48:05;98916.50;;;15.94;54.63
78841;BME280;68379;47.190;27.558;2023-04-25T08:50:42;98917.80;;;15.98;54.70
78841;BME280;68379;47.190;27.558;2023-04-25T08:53:19;98909.80;;;16.00;54.91
78841;BME280;68379;47.190;27.558;2023-04-25T08:55:55;98907.02;;;16.13;54.83
78841;BME280;68379;47.190;27.558;2023-04-25T08:58:29;98907.67;;;16.37;54.22
78841;BME280;68379;47.190;27.558;2023-04-25T09:01:01;98910.13;;;16.29;54.15
78841;BME280;68379;47.190;27.558;2023-04-25T09:03:34;98911.02;;;16.42;54.66
78841;BME280;68379;47.190;27.558;2023-04-25T09:06:07;98905.58;;;16.57;54.38
78841;BME280;68379;47.190;27.558;2023-04-25T09:08:40;98906.57;;;16.72;54.10
78841;BME280;68379;47.190;27.558;2023-04-25T09:11:12;98907.91;;;16.84;53.98
78841;BME280;68379;47.190;27.558;2023-04-25T09:13:44;98910.52;;;16.94;53.67
78841;BME280;68379;47.190;27.558;2023-04-25T09:16:17;98913.10;;;16.82;54.01
78841;BME280;68379;47.190;27.558;2023-04-25T09:18:53;98916.34;;;16.84;54.18
78841;BME280;68379;47.190;27.558;2023-04-25T09:21:25;98911.95;;;16.78;54.17
78841;BME280;68379;47.190;27.558;2023-04-25T09:23:57;98922.11;;;16.69;55.03
78841;BME280;68379;47.190;27.558;2023-04-25T09:26:29;98920.14;;;16.62;55.81
78841;BME280;68379;47.190;27.558;2023-04-25T09:29:08;98920.99;;;16.19;56.64
78841;BME280;68379;47.190;27.558;2023-04-25T09:31:41;98920.92;;;16.01;57.27
78841;BME280;68379;47.190;27.558;2023-04-25T09:34:13;98924.30;;;15.73;58.01
78841;BME280;68379;47.190;27.558;2023-04-25T09:36:47;98926.11;;;15.56;58.93
78841;BME280;68379;47.190;27.558;2023-04-25T09:39:19;98924.24;;;15.21;61.34
78841;BME280;68379;47.190;27.558;2023-04-25T09:41:56;98918.00;;;14.84;63.16
78841;BME280;68379;47.190;27.558;2023-04-25T09:44:29;98916.54;;;14.44;65.22
78841;BME280;68379;47.190;27.558;2023-04-25T09:47:01;98921.35;;;14.11;67.76
78841;BME280;68379;47.190;27.558;2023-04-25T09:49:34;98916.44;;;13.79;69.07
78841;BME280;68379;47.190;27.558;2023-04-25T09:52:15;98915.84;;;13.53;70.70
78841;BME280;68379;47.190;27.558;2023-04-25T09:54:48;98916.63;;;13.30;71.45
78841;BME280;68379;47.190;27.558;2023-04-25T09:57:23;98917.23;;;13.09;72.85
78841;BME280;68379;47.190;27.558;2023-04-25T09:59:56;98914.60;;;12.90;73.06
78841;BME280;68379;47.190;27.558;2023-04-25T10:02:28;98912.81;;;12.70;74.02
78841;BME280;68379;47.190;27.558;2023-04-25T10:05:05;98912.71;;;12.55;74.77
78841;BME280;68379;47.190;27.558;2023-04-25T10:07:40;98907.77;;;12.37;75.61
78841;BME280;68379;47.190;27.558;2023-04-25T10:10:14;98904.07;;;12.28;76.47
78841;BME280;68379;47.190;27.558;2023-04-25T10:12:46;98907.07;;;12.23;76.02
78841;BME280;68379;47.190;27.558;2023-04-25T10:15:20;98907.83;;;12.19;76.79
78841;BME280;68379;47.190;27.558;2023-04-25T10:17:53;98908.95;;;12.18;77.03
78841;BME280;68379;47.190;27.558;2023-04-25T10:20:26;98912.10;;;12.19;77.36
78841;BME280;68379;47.190;27.558;2023-04-25T10:23:02;98907.98;;;12.22;77.68
78841;BME280;68379;47.190;27.558;2023-04-25T10:25:36;98911.80;;;12.23;78.42
78841;BME280;68379;47.190;27.558;2023-04-25T10:28:09;98907.95;;;12.17;79.59
78841;BME280;68379;47.190;27.558;2023-04-25T10:30:58;98908.83;;;12.14;78.52
78841;BME280;68379;47.190;27.558;2023-04-25T10:33:37;98903.09;;;12.18;78.91
78841;BME280;68379;47.190;27.558;2023-04-25T10:36:14;98899.58;;;12.18;79.14
78841;BME280;68379;47.190;27.558;2023-04-25T10:38:47;98897.75;;;12.16;79.33
78841;BME280;68379;47.190;27.558;2023-04-25T10:41:21;98891.25;;;12.15;80.54
78841;BME280;68379;47.190;27.558;2023-04-25T10:44:02;98886.84;;;12.09;80.78
78841;BME280;68379;47.190;27.558;2023-04-25T10:46:36;98885.02;;;11.98;81.56
78841;BME280;68379;47.190;27.558;2023-04-25T10:49:09;98888.86;;;11.90;82.52
78841;BME280;68379;47.190;27.558;2023-04-25T10:51:41;98889.12;;;11.79;83.45
78841;BME280;68379;47.190;27.558;2023-04-25T10:54:13;98888.89;;;11.74;82.77
78841;BME280;68379;47.190;27.558;2023-04-25T10:56:51;98885.43;;;11.73;82.87
78841;BME280;68379;47.190;27.558;2023-04-25T10:59:26;98882.24;;;11.76;82.96
78841;BME280;68379;47.190;27.558;2023-04-25T11:01:59;98882.91;;;11.83;82.73
78841;BME280;68379;47.190;27.558;2023-04-25T11:04:46;98874.64;;;11.91;82.89
78841;BME280;68379;47.190;27.558;2023-04-25T11:07:26;98876.48;;;12.04;83.37
78841;BME280;68379;47.190;27.558;2023-04-25T11:10:03;98872.66;;;12.21;83.00
78841;BME280;68379;47.190;27.558;2023-04-25T11:12:35;98875.86;;;12.34;82.50
78841;BME280;68379;47.190;27.558;2023-04-25T11:15:09;98874.67;;;12.48;82.14
78841;BME280;68379;47.190;27.558;2023-04-25T11:17:41;98873.62;;;12.65;81.55
78841;BME280;68379;47.190;27.558;2023-04-25T11:20:15;98870.77;;;12.79;81.39
78841;BME280;68379;47.190;27.558;2023-04-25T11:22:47;98864.64;;;12.97;80.67
78841;BME280;68379;47.190;27.558;2023-04-25T11:25:19;98864.34;;;13.18;80.21
78841;BME280;68379;47.190;27.558;2023-04-25T11:27:55;98865.29;;;13.39;78.79
78841;BME280;68379;47.190;27.558;2023-04-25T11:30:28;98860.69;;;13.60;78.71
78841;BME280;68379;47.190;27.558;2023-04-25T11:33:00;98862.39;;;13.64;77.46
78841;BME280;68379;47.190;27.558;2023-04-25T11:35:33;98857.25;;;13.66;77.19
78841;BME280;68379;47.190;27.558;2023-04-25T11:38:05;98852.63;;;13.59;76.68
78841;BME280;68379;47.190;27.558;2023-04-25T11:40:37;98852.52;;;13.52;77.29
78841;BME280;68379;47.190;27.558;2023-04-25T11:43:11;98850.94;;;13.60;77.61
78841;BME280;68379;47.190;27.558;2023-04-25T11:45:41;98847.66;;;13.61;77.88
78841;BME280;68379;47.190;27.558;2023-04-25T11:48:13;98845.94;;;13.66;77.65
78841;BME280;68379;47.190;27.558;2023-04-25T11:50:45;98845.08;;;13.74;77.82
78841;BME280;68379;47.190;27.558;2023-04-25T11:53:19;98844.87;;;13.81;77.40
78841;BME280;68379;47.190;27.558;2023-04-25T11:55:50;98838.17;;;13.88;76.66
78841;BME280;68379;47.190;27.558;2023-04-25T11:58:23;98839.16;;;13.90;75.89
78841;BME280;68379;47.190;27.558;2023-04-25T12:00:55;98839.02;;;13.84;75.34
78841;BME280;68379;47.190;27.558;2023-04-25T12:03:31;98839.92;;;14.04;75.56
78841;BME280;68379;47.190;27.558;2023-04-25T12:06:06;98837.67;;;14.21;74.16
78841;BME280;68379;47.190;27.558;2023-04-25T12:08:38;98835.63;;;14.22;74.36
78841;BME280;68379;47.190;27.558;2023-04-25T12:11:22;98829.32;;;14.34;74.24
78841;BME280;68379;47.190;27.558;2023-04-25T12:13:54;98830.36;;;14.37;72.68
78841;BME280;68379;47.190;27.558;2023-04-25T12:16:26;98823.73;;;14.48;73.40
78841;BME280;68379;47.190;27.558;2023-04-25T12:18:58;98823.23;;;14.49;73.06
78841;BME280;68379;47.190;27.558;2023-04-25T12:21:31;98817.42;;;14.39;73.48
78841;BME280;68379;47.190;27.558;2023-04-25T12:24:16;98822.13;;;14.12;73.04
78841;BME280;68379;47.190;27.558;2023-04-25T12:26:51;98821.23;;;13.87;73.99
78841;BME280;68379;47.190;27.558;2023-04-25T12:29:24;98815.97;;;13.76;74.33
78841;BME280;68379;47.190;27.558;2023-04-25T12:31:56;98813.56;;;13.88;74.44
78841;BME280;68379;47.190;27.558;2023-04-25T12:34:26;98807.86;;;13.75;73.70
78841;BME280;68379;47.190;27.558;2023-04-25T12:36:58;98800.66;;;13.76;74.42
78841;BME280;68379;47.190;27.558;2023-04-25T12:39:29;98797.54;;;13.76;74.56
78841;BME280;68379;47.190;27.558;2023-04-25T12:42:04;98793.50;;;13.75;74.03
78841;BME280;68379;47.190;27.558;2023-04-25T12:44:38;98788.20;;;13.75;73.98
78841;BME280;68379;47.190;27.558;2023-04-25T12:47:10;98786.65;;;13.74;74.22
78841;BME280;68379;47.190;27.558;2023-04-25T12:49:42;98784.96;;;13.73;73.21
78841;BME280;68379;47.190;27.558;2023-04-25T12:52:14;98781.60;;;13.67;72.50
78841;BME280;68379;47.190;27.558;2023-04-25T12:54:45;98780.78;;;13.66;72.78
78841;BME280;68379;47.190;27.558;2023-04-25T12:57:17;98780.17;;;13.64;72.93
78841;BME280;68379;47.190;27.558;2023-04-25T12:59:49;98770.83;;;13.53;72.57
78841;BME280;68379;47.190;27.558;2023-04-25T13:02:21;98772.02;;;13.39;72.98
78841;BME280;68379;47.190;27.558;2023-04-25T13:04:53;98771.02;;;13.27;73.74
78841;BME280;68379;47.190;27.558;2023-04-25T13:07:26;98769.02;;;13.17;74.33
78841;BME280;68379;47.190;27.558;2023-04-25T13:09:57;98765.08;;;13.12;74.57
78841;BME280;68379;47.190;27.558;2023-04-25T13:12:31;98764.76;;;13.04;74.78
78841;BME280;68379;47.190;27.558;2023-04-25T13:15:03;98765.40;;;12.97;74.88
78841;BME280;68379;47.190;27.558;2023-04-25T13:17:35;98763.79;;;12.94;75.43
78841;BME280;68379;47.190;27.558;2023-04-25T13:20:09;98765.66;;;12.93;75.78
78841;BME280;68379;47.190;27.558;2023-04-25T13:22:42;98762.16;;;12.97;75.45